M I D A S
Marine Information and Data Acquisition System
Tripno 1244 of the Zeeleeuw from 2007-04-10 06:39:03 to 2007-04-10 13:06:46
Back to CruiseResearch ActivitiesStationsMapUnderway DataData graphs

EquipmentUnitsComment
TimeDGPSUTC
LatitudeDGPSDM.mWGS84
LongitudeDGPSDM.mWGS84
HeadingGyrodeg 
SOGDGPSknotsSpeed over ground
COGDGPSdegCourse over ground
DepthEcho soundermeters200 kHz
Missing or incorrect values are displayed as -999
Navigation data collected by the RV Zeeleeuw from 2007-04-10 06:40:54 to 2007-04-10 13:10:20
Time Latitude Longitude Heading SOG COG Depth
2007-04-10 06:42:03 51°13.613 2°56.049 114 3.2 291 -999
2007-04-10 06:43:03 51°13.639 2°55.953 121.1 4.5 297 -999
2007-04-10 06:44:03 51°13.672 2°55.85 115 3.9 294 -999
2007-04-10 06:45:00 51°13.686 2°55.772 95.6 2.7 278 13.4
2007-04-10 06:45:59 51°13.686 2°55.722 71.6 1 265 14.4
2007-04-10 06:46:59 51°13.697 2°55.72 25.6 1.8 12 15.8
2007-04-10 06:47:59 51°13.752 2°55.692 338.8 5.3 334 13.3
2007-04-10 06:48:59 51°13.86 2°55.612 340.9 8.3 336 12.5
2007-04-10 06:49:59 51°13.994 2°55.519 340.4 9 336 12.7
2007-04-10 06:50:59 51°14.131 2°55.42 338.2 9.1 333 12.6
2007-04-10 06:52:01 51°14.256 2°55.274 319.7 9.1 314 12.6
2007-04-10 06:52:59 51°14.353 2°55.096 314.7 9.2 310 12.3
2007-04-10 06:53:59 51°14.438 2°54.894 300.1 9.2 294 12.3
2007-04-10 06:54:59 51°14.445 2°54.605 261.8 12.5 255 11.9
2007-04-10 06:55:59 51°14.362 2°54.29 246.8 13 244 10.6
2007-04-10 06:56:59 51°14.261 2°53.983 244 13.1 241 10.4
2007-04-10 06:57:59 51°14.158 2°53.685 243.5 12.8 240 10.6
2007-04-10 06:58:59 51°14.056 2°53.389 243.9 12.7 241 10.8
2007-04-10 06:59:59 51°13.952 2°53.093 243.8 12.8 239 11
2007-04-10 07:00:59 51°13.85 2°52.796 244.3 12.7 242 11.4
2007-04-10 07:01:59 51°13.747 2°52.5 244.1 12.8 239 11.5
2007-04-10 07:02:59 51°13.644 2°52.203 244 12.8 240 11.7
2007-04-10 07:03:59 51°13.541 2°51.908 243.7 12.8 241 11.8
2007-04-10 07:04:59 51°13.439 2°51.613 244.2 12.7 241 11.8
2007-04-10 07:05:59 51°13.338 2°51.318 244.9 12.7 241 11.9
2007-04-10 07:06:59 51°13.235 2°51.021 244.2 12.8 240 12
2007-04-10 07:07:59 51°13.132 2°50.723 244 13 241 12.2
2007-04-10 07:08:59 51°13.028 2°50.424 244.3 12.9 241 12.3
2007-04-10 07:09:59 51°12.922 2°50.126 244.1 12.9 240 12.4
2007-04-10 07:10:59 51°12.818 2°49.825 244.2 13 242 12.5
2007-04-10 07:11:59 51°12.714 2°49.524 244.4 13 241 12.6
2007-04-10 07:12:59 51°12.61 2°49.223 244.1 13 241 12.7
2007-04-10 07:13:59 51°12.506 2°48.92 244 13.1 240 12.8
2007-04-10 07:14:59 51°12.402 2°48.617 244.5 13 242 12.9
2007-04-10 07:15:59 51°12.298 2°48.314 244.5 13.1 242 12.9
2007-04-10 07:16:59 51°12.194 2°48.009 244.5 13.1 242 13
2007-04-10 07:17:59 51°12.117 2°47.683 256.4 13.2 252 13.2
2007-04-10 07:18:59 51°12.052 2°47.349 255.4 13.2 252 13.5
2007-04-10 07:19:59 51°11.993 2°47.012 257.7 13.2 255 13.6
2007-04-10 07:20:59 51°11.941 2°46.672 260.3 13.1 256 13.8
2007-04-10 07:21:59 51°11.892 2°46.332 260 13.2 257 13.8
2007-04-10 07:22:59 51°11.842 2°45.994 260.6 13.2 258 13.9
2007-04-10 07:23:59 51°11.801 2°45.651 262.3 13.2 259 13.9
2007-04-10 07:24:59 51°11.759 2°45.308 262.5 13.3 259 13.8
2007-04-10 07:25:59 51°11.717 2°44.962 262.8 13.3 258 13.6
2007-04-10 07:26:59 51°11.675 2°44.615 262.7 13.3 259 13.4
2007-04-10 07:27:59 51°11.633 2°44.267 262 13.5 259 13.2
2007-04-10 07:28:59 51°11.592 2°43.918 262.3 13.4 260 12.8
2007-04-10 07:29:59 51°11.551 2°43.569 262.3 13.4 260 12.6
2007-04-10 07:30:59 51°11.489 2°43.231 252.7 13.3 250 12.2
2007-04-10 07:31:59 51°11.401 2°42.908 247.3 13.4 245 12.3
2007-04-10 07:32:59 51°11.307 2°42.606 244.5 11 242 12.5
2007-04-10 07:33:59 51°11.242 2°42.419 242.2 6.3 239 12.8
2007-04-10 07:34:59 51°11.199 2°42.3 243.8 4.5 240 12.9
2007-04-10 07:35:59 51°11.168 2°42.207 240 3.5 237 12.8
2007-04-10 07:36:59 51°11.132 2°42.146 222.9 3 225 13.1
2007-04-10 07:37:59 51°11.106 2°42.091 240.9 2.2 241 13.1
2007-04-10 07:38:59 51°11.097 2°42.06 248.5 0.4 235 13
2007-04-10 07:39:59 51°11.095 2°42.051 251.9 0.3 268 13
2007-04-10 07:40:59 51°11.094 2°42.044 254 0.2 236 13.1
2007-04-10 07:41:59 51°11.092 2°42.04 252.5 0.2 212 13
2007-04-10 07:42:59 51°11.091 2°42.038 247.1 0.1 190 13
2007-04-10 07:43:59 51°11.09 2°42.039 238.5 0.1 138 13
2007-04-10 07:44:59 51°11.09 2°42.041 228.3 0.1 4 13
2007-04-10 07:45:59 51°11.086 2°42.04 217 1.3 211 13
2007-04-10 07:46:59 51°11.011 2°41.946 224.6 10.2 224 13
2007-04-10 07:47:59 51°10.906 2°41.656 251.1 13.5 250 13
2007-04-10 07:48:59 51°10.849 2°41.306 259.8 13.6 257 13
2007-04-10 07:49:59 51°10.799 2°40.953 259.4 13.6 256 13.1
2007-04-10 07:50:59 51°10.746 2°40.605 260.1 13.5 257 13.6
2007-04-10 07:51:59 51°10.696 2°40.255 259.8 13.5 257 14.1
2007-04-10 07:52:59 51°10.647 2°39.905 260.5 13.7 257 14.7
2007-04-10 07:53:59 51°10.596 2°39.554 260.2 13.6 256 15.4
2007-04-10 07:54:59 51°10.551 2°39.203 262.7 13.6 259 15.8
2007-04-10 07:55:59 51°10.511 2°38.851 262.9 13.5 260 16.4
2007-04-10 07:56:59 51°10.469 2°38.498 262.3 13.6 259 17.4
2007-04-10 07:57:59 51°10.427 2°38.143 262.2 13.6 259 18.3
2007-04-10 07:58:59 51°10.385 2°37.788 262.3 13.7 259 18.5
2007-04-10 07:59:59 51°10.344 2°37.434 263.3 13.6 262 18.2
2007-04-10 08:00:59 51°10.318 2°37.075 266.6 13.6 263 17.7
2007-04-10 08:01:59 51°10.315 2°36.715 279.3 13.7 277 16.1
2007-04-10 08:02:59 51°10.408 2°36.399 316 13.1 315 9.7
2007-04-10 08:03:59 51°10.61 2°36.286 5 13.3 3 11.1
2007-04-10 08:04:59 51°10.82 2°36.384 28.4 13.4 22 11.9
2007-04-10 08:05:59 51°11.031 2°36.498 23.5 13.4 18 12.4
2007-04-10 08:06:59 51°11.243 2°36.604 21.5 13.4 16 12.2
2007-04-10 08:07:59 51°11.457 2°36.705 22.8 13.4 17 12
2007-04-10 08:08:59 51°11.668 2°36.807 23.3 13.3 17 11.4
2007-04-10 08:09:59 51°11.879 2°36.906 22.5 13.2 16 11
2007-04-10 08:10:59 51°12.091 2°37.001 21.7 13.2 16 10.8
2007-04-10 08:11:59 51°12.302 2°37.094 21.8 13.2 15 10.6
2007-04-10 08:12:59 51°12.515 2°37.184 21.6 13.2 14 10.8
2007-04-10 08:13:59 51°12.728 2°37.273 21.2 13.3 15 10.9
2007-04-10 08:14:59 51°12.943 2°37.362 21.3 13.3 15 10.8
2007-04-10 08:15:59 51°13.158 2°37.453 21.1 13.4 15 10.1
2007-04-10 08:16:59 51°13.373 2°37.543 21.1 13.3 15 9.7
2007-04-10 08:17:59 51°13.591 2°37.594 5.8 13.3 357 9
2007-04-10 08:18:59 51°13.811 2°37.501 346.2 13.7 340 18.1
2007-04-10 08:19:59 51°14.023 2°37.376 347 13.6 341 20
2007-04-10 08:20:59 51°14.237 2°37.256 346.9 13.5 340 14.4
2007-04-10 08:21:59 51°14.452 2°37.143 347.6 13.5 342 11.4
2007-04-10 08:22:59 51°14.664 2°37.03 347.3 13.5 341 9.8
2007-04-10 08:23:59 51°14.879 2°36.918 347.7 13.7 343 10.3
2007-04-10 08:24:59 51°15.096 2°36.804 347.9 13.7 342 14
2007-04-10 08:25:59 51°15.31 2°36.693 347.7 13.4 342 13
2007-04-10 08:26:59 51°15.524 2°36.582 346.9 13.5 342 14.9
2007-04-10 08:27:59 51°15.738 2°36.47 346.5 13.5 341 20.6
2007-04-10 08:28:59 51°15.95 2°36.354 347 13.5 341 26.1
2007-04-10 08:29:59 51°16.168 2°36.286 7.6 13.4 4 27
2007-04-10 08:30:59 51°16.337 2°36.434 52.1 9.2 49 28.1
2007-04-10 08:31:59 51°16.401 2°36.565 48.8 4.5 43 27.8
2007-04-10 08:32:59 51°16.449 2°36.617 34.2 2.9 28 26.8
2007-04-10 08:33:59 51°16.484 2°36.647 42.2 2.1 33 27
2007-04-10 08:34:59 51°16.508 2°36.683 56.6 2 45 26.8
2007-04-10 08:35:59 51°16.536 2°36.725 44.3 2.7 37 26.7
2007-04-10 08:36:59 51°16.576 2°36.769 44.4 3 38 26.5
2007-04-10 08:37:59 51°16.605 2°36.81 54.4 1.1 43 26.5
2007-04-10 08:38:59 51°16.611 2°36.817 63.4 0.4 38 26.5
2007-04-10 08:39:59 51°16.614 2°36.825 72.3 0.4 64 26.5
2007-04-10 08:40:59 51°16.616 2°36.836 77.4 0.4 73 26.6
2007-04-10 08:41:59 51°16.618 2°36.848 76.8 0.7 73 26.5
2007-04-10 08:42:59 51°16.631 2°36.872 39.9 1.9 31 26.6
2007-04-10 08:43:59 51°16.718 2°36.935 34.2 9.5 29 26.3
2007-04-10 08:44:59 51°16.891 2°37.111 38.7 13.1 32 28
2007-04-10 08:45:59 51°17.076 2°37.301 38.3 13.3 33 26.8
2007-04-10 08:46:59 51°17.263 2°37.492 38.4 13.2 33 26.8
2007-04-10 08:47:59 51°17.448 2°37.682 38.4 13.2 33 27.2
2007-04-10 08:48:59 51°17.636 2°37.87 38.3 13.3 33 26.9
2007-04-10 08:49:59 51°17.824 2°38.058 38.4 13.3 32 26.8
2007-04-10 08:50:59 51°18.012 2°38.244 38.2 13.3 31 26.7
2007-04-10 08:51:59 51°18.2 2°38.433 38.5 13.4 32 26.9
2007-04-10 08:52:59 51°18.387 2°38.622 38.3 13.4 32 27
2007-04-10 08:53:59 51°18.576 2°38.813 38.5 13.4 33 26.7
2007-04-10 08:54:59 51°18.763 2°39.009 39.1 13.5 34 26.4
2007-04-10 08:55:59 51°18.95 2°39.209 37.5 13.5 33 26.3
2007-04-10 08:56:59 51°19.138 2°39.405 37.7 13.4 31 26.8
2007-04-10 08:57:59 51°19.325 2°39.595 38.1 13.2 33 27.9
2007-04-10 08:58:59 51°19.508 2°39.786 38.5 13.1 33 28.6
2007-04-10 08:59:59 51°19.706 2°39.921 17.5 13 9 29.6
2007-04-10 09:00:59 51°19.923 2°39.933 4.5 13.1 359 28.5
2007-04-10 09:01:59 51°20.142 2°39.924 5.5 13.2 359 28.1
2007-04-10 09:02:59 51°20.363 2°39.921 6.2 13.3 -999 27.2
2007-04-10 09:03:59 51°20.584 2°39.923 6.4 13.3 1 26.4
2007-04-10 09:04:59 51°20.806 2°39.93 7.5 13.1 2 26
2007-04-10 09:05:59 51°21.023 2°39.946 7.5 13.1 3 26.3
2007-04-10 09:06:59 51°21.24 2°39.962 7.2 13.1 3 26.3
2007-04-10 09:07:59 51°21.457 2°39.979 7.7 13.1 3 25.7
2007-04-10 09:08:59 51°21.675 2°39.998 6.6 13.1 3 26.8
2007-04-10 09:09:59 51°21.893 2°40.015 7.3 13.1 3 28.2
2007-04-10 09:10:59 51°22.109 2°40.032 7.2 13.1 3 28.9
2007-04-10 09:11:59 51°22.326 2°40.05 7.6 13.1 3 28.9
2007-04-10 09:12:59 51°22.544 2°40.065 6.8 13.1 2 29.2
2007-04-10 09:13:59 51°22.763 2°40.079 6.9 13.2 2 29.5
2007-04-10 09:14:59 51°22.978 2°40.101 7.3 12.9 4 30
2007-04-10 09:15:59 51°23.192 2°40.126 10.8 12.9 12 29.5
2007-04-10 09:16:59 51°23.365 2°40.318 54.6 13.2 54 29.6
2007-04-10 09:17:59 51°23.462 2°40.635 69.1 13.4 67 29.4
2007-04-10 09:18:59 51°23.56 2°40.952 62.1 13.1 56 27.6
2007-04-10 09:19:59 51°23.674 2°41.248 64.6 13.1 60 28.8
2007-04-10 09:20:59 51°23.786 2°41.546 63.8 13 59 28
2007-04-10 09:21:59 51°23.9 2°41.839 63.3 12.9 58 27.3
2007-04-10 09:22:59 51°24.01 2°42.135 64.9 13 60 26.6
2007-04-10 09:23:59 51°24.12 2°42.433 64.7 13 59 21.1
2007-04-10 09:24:59 51°24.229 2°42.732 64.5 13 59 23.8
2007-04-10 09:25:59 51°24.336 2°43.033 66.2 12.9 61 16.7
2007-04-10 09:26:59 51°24.437 2°43.337 66.7 12.9 62 25.4
2007-04-10 09:27:59 51°24.539 2°43.642 66.8 13 62 19.1
2007-04-10 09:28:59 51°24.64 2°43.946 67 13 62 24.5
2007-04-10 09:29:59 51°24.741 2°44.25 66.5 12.9 62 24
2007-04-10 09:30:59 51°24.841 2°44.553 66.7 12.9 62 23.8
2007-04-10 09:31:59 51°24.937 2°44.86 68.3 12.9 65 25.9
2007-04-10 09:32:59 51°25.031 2°45.171 68.3 13 64 24.1
2007-04-10 09:33:59 51°25.125 2°45.483 68 12.9 64 25.7
2007-04-10 09:34:59 51°25.214 2°45.797 70 13 66 25
2007-04-10 09:35:59 51°25.3 2°46.116 70.2 13 67 24.2
2007-04-10 09:36:59 51°25.383 2°46.437 70.4 13 67 25.3
2007-04-10 09:37:59 51°25.464 2°46.76 72.6 13.1 69 24.3
2007-04-10 09:38:59 51°25.54 2°47.085 72.8 13.1 71 24.6
2007-04-10 09:39:59 51°25.621 2°47.407 71.1 13 69 25
2007-04-10 09:40:59 51°25.698 2°47.701 69 10.1 68 24.2
2007-04-10 09:41:59 51°25.749 2°47.89 68.1 6.5 67 23.3
2007-04-10 09:42:59 51°25.79 2°48.032 63.9 5.4 59 23.5
2007-04-10 09:43:59 51°25.839 2°48.143 61.1 5 56 23.5
2007-04-10 09:44:59 51°25.884 2°48.234 50.8 3.8 51 23.4
2007-04-10 09:45:59 51°25.917 2°48.312 58.4 3.3 61 23.3
2007-04-10 09:46:59 51°25.946 2°48.374 49.1 2.5 51 23.2
2007-04-10 09:47:59 51°25.969 2°48.42 52.9 2.1 55 23.3
2007-04-10 09:48:59 51°25.986 2°48.459 55.9 1.7 60 23.4
2007-04-10 09:49:59 51°25.998 2°48.496 61.4 1 75 23.2
2007-04-10 09:50:59 51°25.998 2°48.508 57.2 0.4 95 23.2
2007-04-10 09:51:59 51°25.998 2°48.516 47.9 0.1 74 23.4
2007-04-10 09:52:59 51°25.998 2°48.52 42.2 0.2 111 23.1
2007-04-10 09:53:59 51°25.997 2°48.522 36 0.2 135 23.1
2007-04-10 09:54:59 51°25.995 2°48.521 32.7 0.1 156 23.2
2007-04-10 09:55:59 51°26.009 2°48.54 45.9 2.7 47 23.5
2007-04-10 09:56:59 51°26.031 2°48.668 79.2 8.6 78 23.6
2007-04-10 09:57:59 51°26.082 2°48.971 76.2 12.7 74 23
2007-04-10 09:58:59 51°26.122 2°49.306 90 12.9 92 23.1
2007-04-10 09:59:59 51°26.05 2°49.632 116.3 13.2 117 23.1
2007-04-10 10:00:59 51°25.954 2°49.945 114.3 13 112 22.9
2007-04-10 10:01:59 51°25.873 2°50.268 111.4 13.1 112 22.8
2007-04-10 10:02:59 51°25.788 2°50.587 114.3 13.1 114 22.9
2007-04-10 10:03:59 51°25.7 2°50.905 113.9 12.9 112 23.1
2007-04-10 10:04:59 51°25.615 2°51.221 114.3 12.9 109 22.9
2007-04-10 10:05:59 51°25.534 2°51.534 114.2 12.8 114 23.3
2007-04-10 10:06:59 51°25.454 2°51.852 113.2 13 112 24.9
2007-04-10 10:07:59 51°25.371 2°52.175 113.8 13.2 112 25.4
2007-04-10 10:08:59 51°25.286 2°52.499 114.2 13.2 113 22.9
2007-04-10 10:09:59 51°25.201 2°52.822 113.7 13.1 113 22.7
2007-04-10 10:10:59 51°25.117 2°53.142 113.3 13 113 21.8
2007-04-10 10:11:59 51°25.032 2°53.464 113 13.2 111 20.4
2007-04-10 10:12:59 51°24.95 2°53.784 113.1 12.9 111 20.2
2007-04-10 10:13:59 51°24.868 2°54.101 113.5 12.9 113 18.8
2007-04-10 10:14:59 51°24.784 2°54.418 113.2 12.9 115 16.3
2007-04-10 10:15:59 51°24.701 2°54.732 112.7 12.9 114 17.6
2007-04-10 10:16:59 51°24.615 2°55.047 113.2 13 115 21.9
2007-04-10 10:17:59 51°24.53 2°55.361 113.3 12.9 114 23.4
2007-04-10 10:18:59 51°24.448 2°55.678 113.2 12.8 113 23.6
2007-04-10 10:19:59 51°24.364 2°55.993 113.2 12.8 114 23.2
2007-04-10 10:20:59 51°24.282 2°56.307 114 12.8 114 19.7
2007-04-10 10:21:59 51°24.2 2°56.62 113 12.7 114 15.4
2007-04-10 10:22:59 51°24.117 2°56.931 113.1 12.7 112 16.4
2007-04-10 10:23:59 51°24.033 2°57.245 113.1 12.6 113 13
2007-04-10 10:24:59 51°23.949 2°57.558 113.4 12.9 113 15
2007-04-10 10:25:59 51°23.865 2°57.869 113.2 12.7 112 15.3
2007-04-10 10:26:59 51°23.754 2°58.157 127.6 12.9 131 16.2
2007-04-10 10:27:59 51°23.618 2°58.424 128 12.9 129 17.1
2007-04-10 10:28:59 51°23.466 2°58.668 137.5 13 140 17
2007-04-10 10:29:59 51°23.298 2°58.887 140.2 13.2 140 18
2007-04-10 10:30:59 51°23.142 2°59.126 133.4 12.8 134 17.5
2007-04-10 10:31:59 51°23.017 2°59.403 122.3 12.8 124 16.4
2007-04-10 10:32:59 51°22.93 2°59.707 107.3 12.7 107 15.2
2007-04-10 10:33:59 51°22.877 3°0.032 105.8 12.6 105 14.3
2007-04-10 10:34:59 51°22.822 3°0.356 106.4 12.7 104 13
2007-04-10 10:35:59 51°22.766 3°0.678 106.8 12.5 105 12.3
2007-04-10 10:36:59 51°22.707 3°0.996 106.9 12.4 106 11.2
2007-04-10 10:37:59 51°22.659 3°1.318 103.7 12.5 102 11
2007-04-10 10:38:59 51°22.623 3°1.644 100.4 12.6 98 10.1
2007-04-10 10:39:59 51°22.592 3°1.973 99.5 12.6 98 10.6
2007-04-10 10:40:59 51°22.564 3°2.298 96.7 12.6 97 11.1
2007-04-10 10:41:59 51°22.539 3°2.628 98.6 12.5 99 10.4
2007-04-10 10:42:59 51°22.514 3°2.957 98 12.5 94 10.2
2007-04-10 10:43:59 51°22.49 3°3.285 97.4 12.2 96 10.6
2007-04-10 10:44:59 51°22.464 3°3.613 98.2 12.5 98 10.9
2007-04-10 10:45:59 51°22.438 3°3.938 98.6 12.4 98 11.3
2007-04-10 10:46:59 51°22.416 3°4.264 95.7 12.3 94 11.1
2007-04-10 10:47:59 51°22.399 3°4.59 95.8 12.3 95 11.2
2007-04-10 10:48:59 51°22.381 3°4.915 96.7 12.3 95 11.2
2007-04-10 10:49:59 51°22.362 3°5.239 96.5 12.4 95 11.4
2007-04-10 10:50:59 51°22.344 3°5.564 96.5 12.3 96 11.4
2007-04-10 10:51:59 51°22.325 3°5.889 96.2 12.2 95 11.6
2007-04-10 10:52:59 51°22.308 3°6.213 94.7 12.2 95 11.6
2007-04-10 10:53:59 51°22.301 3°6.539 93.1 12.3 92 11.7
2007-04-10 10:54:59 51°22.295 3°6.866 93.1 12.3 92 11.7
2007-04-10 10:55:59 51°22.288 3°7.192 92.8 12.2 92 11.7
2007-04-10 10:56:59 51°22.279 3°7.517 93.7 12.2 92 11.7
2007-04-10 10:57:59 51°22.279 3°7.838 90.9 12.1 92 11.6
2007-04-10 10:58:59 51°22.28 3°8.157 91.4 12.1 90 11.7
2007-04-10 10:59:59 51°22.266 3°8.478 95.9 12.1 94 11.8
2007-04-10 11:00:59 51°22.249 3°8.799 95.5 12.1 96 11.9
2007-04-10 11:01:59 51°22.233 3°9.122 96 12.3 94 11.9
2007-04-10 11:02:59 51°22.216 3°9.447 95.1 12.2 94 12.3
2007-04-10 11:03:59 51°22.204 3°9.772 91.9 12.3 90 12.7
2007-04-10 11:04:59 51°22.214 3°10.097 86.5 12.2 85 13.3
2007-04-10 11:05:59 51°22.231 3°10.421 87.6 12.3 85 14.3
2007-04-10 11:06:59 51°22.253 3°10.745 84.7 12.3 80 18
2007-04-10 11:07:59 51°22.301 3°11.06 79 12.1 74 15.5
2007-04-10 11:08:59 51°22.352 3°11.373 80 12.1 77 15.1
2007-04-10 11:09:59 51°22.399 3°11.687 81.8 12.2 77 14.8
2007-04-10 11:10:59 51°22.438 3°12.003 84.7 12.2 81 14.3
2007-04-10 11:12:00 51°22.466 3°12.313 86.3 10.2 82 13.7
2007-04-10 11:13:00 51°22.497 3°12.505 88 5.6 85 13.4
2007-04-10 11:14:00 51°22.519 3°12.627 69.4 4.4 63 13.1
2007-04-10 11:15:00 51°22.545 3°12.744 78.6 4.9 75 12.7
2007-04-10 11:16:00 51°22.564 3°12.876 80.6 5.2 75 12.4
2007-04-10 11:17:00 51°22.579 3°13.007 85.9 4.5 81 12
2007-04-10 11:18:00 51°22.593 3°13.101 80.4 3 76 11.9
2007-04-10 11:19:00 51°22.603 3°13.162 84.3 1.8 78 11.7
2007-04-10 11:20:00 51°22.607 3°13.192 81.7 0.6 50 11.7
2007-04-10 11:21:00 51°22.611 3°13.199 70.4 0.3 33 11.7
2007-04-10 11:22:00 51°22.617 3°13.198 61.8 0.4 336 11.6
2007-04-10 11:23:00 51°22.623 3°13.191 51.3 0.4 319 11.7
2007-04-10 11:24:00 51°22.629 3°13.179 39.7 0.6 307 11.6
2007-04-10 11:25:00 51°22.642 3°13.169 32.5 1.5 351 11.6
2007-04-10 11:26:00 51°22.68 3°13.135 333.9 3.8 314 11.5
2007-04-10 11:27:00 51°22.694 3°13.017 260.9 5.2 258 11.7
2007-04-10 11:28:00 51°22.655 3°12.767 259.8 13.1 257 12.1
2007-04-10 11:29:00 51°22.584 3°12.41 253.1 14.3 251 12.8
2007-04-10 11:30:00 51°22.522 3°12.041 261.2 14.4 258 13.8
2007-04-10 11:31:00 51°22.473 3°11.666 261.1 14.4 258 14.4
2007-04-10 11:32:00 51°22.425 3°11.29 262 14.4 259 15
2007-04-10 11:33:00 51°22.374 3°10.916 261 14.4 258 15.3
2007-04-10 11:34:00 51°22.323 3°10.544 261.1 14.3 258 17.9
2007-04-10 11:35:00 51°22.269 3°10.176 261.2 14.3 257 13.6
2007-04-10 11:36:00 51°22.215 3°9.805 261.5 14.3 256 12.7
2007-04-10 11:37:00 51°22.161 3°9.435 261.9 14.3 257 12.3
2007-04-10 11:38:00 51°22.105 3°9.066 261 14.3 256 11.7
2007-04-10 11:39:00 51°22.059 3°8.694 264.5 14.2 259 11.4
2007-04-10 11:40:00 51°22.014 3°8.321 264.4 14.2 259 11.1
2007-04-10 11:41:00 51°21.971 3°7.948 264.8 14.3 259 10.9
2007-04-10 11:42:00 51°21.927 3°7.575 264.5 14.3 259 11
2007-04-10 11:43:00 51°21.882 3°7.2 264.1 14.3 259 10.8
2007-04-10 11:44:00 51°21.836 3°6.825 264.3 14.4 259 10.7
2007-04-10 11:45:00 51°21.778 3°6.455 259.4 14.4 255 10.5
2007-04-10 11:46:00 51°21.716 3°6.084 260.1 14.4 256 10.4
2007-04-10 11:47:00 51°21.655 3°5.715 260.3 14.4 255 10.4
2007-04-10 11:48:00 51°21.591 3°5.347 257.7 14.4 252 10.4
2007-04-10 11:49:00 51°21.522 3°4.982 258.3 14.3 252 10.3
2007-04-10 11:50:00 51°21.454 3°4.618 258.1 14.2 253 10.2
2007-04-10 11:51:00 51°21.388 3°4.254 258.5 14.2 254 10.3
2007-04-10 11:52:00 51°21.318 3°3.893 256.1 14.3 252 10
2007-04-10 11:53:00 51°21.244 3°3.533 255.9 14.3 252 10.1
2007-04-10 11:54:00 51°21.171 3°3.172 256.5 14.2 252 10
2007-04-10 11:55:00 51°21.098 3°2.811 256.1 14.3 251 10
2007-04-10 11:56:01 51°21.023 3°2.443 256.3 14.3 254 9.9
2007-04-10 11:57:00 51°20.949 3°2.086 256.3 14.5 252 9.9
2007-04-10 11:58:00 51°20.87 3°1.723 254.7 14.5 248 9.9
2007-04-10 11:59:00 51°20.787 3°1.363 253.9 14.5 250 9.8
2007-04-10 12:00:00 51°20.703 3°1.003 253.7 14.4 249 9.8
2007-04-10 12:01:00 51°20.621 3°0.644 254 14.4 250 9.9
2007-04-10 12:02:00 51°20.54 3°0.283 254.4 14.4 251 9.9
2007-04-10 12:03:00 51°20.459 2°59.921 253.6 14.5 251 10
2007-04-10 12:04:00 51°20.375 2°59.561 252 14.5 247 10
2007-04-10 12:05:01 51°20.28 2°59.202 250.8 14.4 248 10
2007-04-10 12:06:00 51°20.188 2°58.854 251.1 14.4 247 10.1
2007-04-10 12:07:00 51°20.093 2°58.502 250.4 14.4 247 10.1
2007-04-10 12:08:00 51°19.997 2°58.151 249.9 14.5 246 10.1
2007-04-10 12:09:00 51°19.891 2°57.806 246.6 14.5 243 10.2
2007-04-10 12:10:00 51°19.783 2°57.462 246.8 14.5 243 10.2
2007-04-10 12:11:00 51°19.675 2°57.117 247.7 14.5 244 10.4
2007-04-10 12:12:00 51°19.566 2°56.773 247.5 14.5 242 10.5
2007-04-10 12:13:00 51°19.46 2°56.428 247.3 14.5 244 10.5
2007-04-10 12:14:00 51°19.353 2°56.085 247 14.4 244 10.3
2007-04-10 12:15:00 51°19.245 2°55.742 247.4 14.5 244 10.6
2007-04-10 12:16:01 51°19.134 2°55.392 246.8 14.5 244 10.9
2007-04-10 12:17:00 51°19.028 2°55.054 247.3 14.5 243 10.9
2007-04-10 12:18:00 51°18.921 2°54.71 247.5 14.4 245 10.9
2007-04-10 12:19:00 51°18.812 2°54.367 247.2 14.5 243 10.9
2007-04-10 12:20:00 51°18.705 2°54.023 247.5 14.5 243 10.6
2007-04-10 12:21:00 51°18.601 2°53.675 248.7 14.5 245 10.8
2007-04-10 12:22:00 51°18.5 2°53.324 249 14.6 245 10.7
2007-04-10 12:23:00 51°18.398 2°52.973 249.5 14.5 245 10.8
2007-04-10 12:24:00 51°18.278 2°52.64 237.4 14.5 234 10.6
2007-04-10 12:25:00 51°18.081 2°52.437 196.7 14.3 195 10.1
2007-04-10 12:26:00 51°17.848 2°52.379 185.8 14.2 187 10
2007-04-10 12:27:00 51°17.613 2°52.347 182.9 14.2 184 9.9
2007-04-10 12:28:00 51°17.377 2°52.328 183.4 14 183 10.1
2007-04-10 12:29:00 51°17.144 2°52.336 173.4 14 173 9.7
2007-04-10 12:30:00 51°16.947 2°52.496 137.5 13.3 137 9.3
2007-04-10 12:31:00 51°16.815 2°52.778 122.5 13.4 123 9.3
2007-04-10 12:32:00 51°16.694 2°53.078 122.2 13.5 123 10.9
2007-04-10 12:33:00 51°16.586 2°53.358 119.5 11.9 124 11.2
2007-04-10 12:34:00 51°16.495 2°53.631 110.9 11.6 111 11.3
2007-04-10 12:35:00 51°16.426 2°53.854 116.3 6.8 122 11.3
2007-04-10 12:36:00 51°16.377 2°53.971 113.6 4.2 121 11.3
2007-04-10 12:37:00 51°16.35 2°54.05 101.7 2.9 117 11.2
2007-04-10 12:38:00 51°16.331 2°54.11 98.1 2.5 117 11.1
2007-04-10 12:39:00 51°16.311 2°54.178 97 3 112 11
2007-04-10 12:40:00 51°16.296 2°54.249 91.4 2.4 108 11
2007-04-10 12:41:00 51°16.29 2°54.296 76.7 1.3 101 11
2007-04-10 12:42:00 51°16.288 2°54.318 67.5 0.6 114 11.1
2007-04-10 12:43:00 51°16.286 2°54.327 60.9 0.2 109 11.1
2007-04-10 12:44:00 51°16.283 2°54.328 54.4 0.1 198 11.1
2007-04-10 12:45:00 51°16.28 2°54.324 48.4 0.3 223 11.1
2007-04-10 12:46:00 51°16.276 2°54.315 42.1 0.5 234 11.1
2007-04-10 12:47:00 51°16.27 2°54.303 36.3 0.7 243 11.1
2007-04-10 12:48:01 51°16.271 2°54.299 40.7 0.6 16 11.1
2007-04-10 12:49:00 51°16.275 2°54.326 83.7 1.7 103 11.1
2007-04-10 12:50:00 51°16.241 2°54.374 142.5 4 157 11.1
2007-04-10 12:51:00 51°16.136 2°54.402 172 8.5 176 11
2007-04-10 12:52:00 51°15.969 2°54.418 173.4 10.7 176 10.6
2007-04-10 12:53:00 51°15.788 2°54.437 174.7 10.8 176 10.2
2007-04-10 12:54:00 51°15.606 2°54.458 173.5 11 175 9.7
2007-04-10 12:55:00 51°15.428 2°54.495 170.5 10.9 172 9.1
2007-04-10 12:56:00 51°15.25 2°54.539 169.6 10.6 171 8.6
2007-04-10 12:57:00 51°15.073 2°54.59 167.4 10.7 168 8.4
2007-04-10 12:58:00 51°14.899 2°54.658 164.4 10.8 165 9.4
2007-04-10 12:59:00 51°14.708 2°54.757 160.7 12.7 160 9.3
2007-04-10 13:00:00 51°14.515 2°54.904 150.2 12.9 149 9.3
2007-04-10 13:01:00 51°14.349 2°55.121 136 12.9 133 10.5
2007-04-10 13:02:00 51°14.199 2°55.344 148.7 11.7 146 11
2007-04-10 13:03:01 51°14.046 2°55.469 157.9 9.4 155 10.9
2007-04-10 13:04:00 51°13.924 2°55.559 158.9 8 155 11.3
2007-04-10 13:05:00 51°13.805 2°55.654 153.5 7.9 149 11.1
2007-04-10 13:06:00 51°13.708 2°55.791 136.8 7.3 132 12.5
2007-04-10 13:07:00 51°13.653 2°55.916 126.2 4.9 122 10.1
2007-04-10 13:08:00 51°13.618 2°56.013 119.2 3.7 115 10.8
2007-04-10 13:09:00 51°13.605 2°56.079 104.3 1.7 104 7.2
2007-04-10 13:10:00 51°13.601 2°56.096 110 0.3 130 5.1